sensor_id;sensor_type;location;lat;lon;timestamp;P1;durP1;ratioP1;P2;durP2;ratioP2
495;SDS011;39559;48.630;9.162;2023-03-23T00:01:49;15.02;;;7.95;;
495;SDS011;39559;48.630;9.162;2023-03-23T00:04:15;12.37;;;7.50;;
495;SDS011;39559;48.630;9.162;2023-03-23T00:06:42;12.48;;;7.90;;
495;SDS011;39559;48.630;9.162;2023-03-23T00:09:11;9.48;;;8.43;;
495;SDS011;39559;48.630;9.162;2023-03-23T00:11:40;11.10;;;7.60;;
495;SDS011;39559;48.630;9.162;2023-03-23T00:14:07;11.13;;;7.15;;
495;SDS011;39559;48.630;9.162;2023-03-23T00:18:30;10.35;;;6.70;;
495;SDS011;39559;48.630;9.162;2023-03-23T00:20:56;12.67;;;7.00;;
495;SDS011;39559;48.630;9.162;2023-03-23T00:23:23;10.73;;;7.53;;
495;SDS011;39559;48.630;9.162;2023-03-23T00:25:51;8.68;;;6.90;;
495;SDS011;39559;48.630;9.162;2023-03-23T00:28:21;12.77;;;8.35;;
495;SDS011;39559;48.630;9.162;2023-03-23T00:31:01;10.57;;;7.43;;
495;SDS011;39559;48.630;9.162;2023-03-23T00:33:33;10.35;;;6.90;;
495;SDS011;39559;48.630;9.162;2023-03-23T00:36:06;7.75;;;5.40;;
495;SDS011;39559;48.630;9.162;2023-03-23T00:38:34;8.60;;;6.88;;
495;SDS011;39559;48.630;9.162;2023-03-23T00:42:31;7.90;;;5.22;;
495;SDS011;39559;48.630;9.162;2023-03-23T00:45:03;8.75;;;5.70;;
495;SDS011;39559;48.630;9.162;2023-03-23T00:47:36;7.53;;;5.95;;
495;SDS011;39559;48.630;9.162;2023-03-23T00:50:03;6.35;;;5.60;;
495;SDS011;39559;48.630;9.162;2023-03-23T00:52:30;36.05;;;5.90;;
495;SDS011;39559;48.630;9.162;2023-03-23T00:54:56;8.80;;;5.90;;
495;SDS011;39559;48.630;9.162;2023-03-23T00:57:21;8.13;;;5.77;;
495;SDS011;39559;48.630;9.162;2023-03-23T00:59:49;5.65;;;5.05;;
495;SDS011;39559;48.630;9.162;2023-03-23T01:02:18;6.90;;;4.85;;
495;SDS011;39559;48.630;9.162;2023-03-23T01:06:27;5.25;;;4.70;;
495;SDS011;39559;48.630;9.162;2023-03-23T01:08:53;7.95;;;6.45;;
495;SDS011;39559;48.630;9.162;2023-03-23T01:11:19;7.07;;;4.90;;
495;SDS011;39559;48.630;9.162;2023-03-23T01:13:45;5.70;;;4.65;;
495;SDS011;39559;48.630;9.162;2023-03-23T01:16:11;7.47;;;5.90;;
495;SDS011;39559;48.630;9.162;2023-03-23T01:18:37;9.53;;;5.13;;
495;SDS011;39559;48.630;9.162;2023-03-23T01:21:07;6.13;;;5.25;;
495;SDS011;39559;48.630;9.162;2023-03-23T01:23:35;7.57;;;5.80;;
495;SDS011;39559;48.630;9.162;2023-03-23T01:26:05;10.48;;;5.72;;
495;SDS011;39559;48.630;9.162;2023-03-23T01:30:24;6.90;;;4.40;;
495;SDS011;39559;48.630;9.162;2023-03-23T01:32:51;6.75;;;5.40;;
495;SDS011;39559;48.630;9.162;2023-03-23T01:35:16;8.10;;;5.13;;
495;SDS011;39559;48.630;9.162;2023-03-23T01:37:42;7.47;;;5.40;;
495;SDS011;39559;48.630;9.162;2023-03-23T01:40:08;7.27;;;5.20;;
495;SDS011;39559;48.630;9.162;2023-03-23T01:42:36;6.00;;;4.40;;
495;SDS011;39559;48.630;9.162;2023-03-23T01:47:52;5.50;;;4.90;;
495;SDS011;39559;48.630;9.162;2023-03-23T01:50:23;4.40;;;3.97;;
495;SDS011;39559;48.630;9.162;2023-03-23T01:54:22;8.13;;;6.22;;
495;SDS011;39559;48.630;9.162;2023-03-23T01:56:59;6.32;;;5.10;;
495;SDS011;39559;48.630;9.162;2023-03-23T01:59:27;4.70;;;4.20;;
495;SDS011;39559;48.630;9.162;2023-03-23T02:01:54;7.32;;;5.47;;
495;SDS011;39559;48.630;9.162;2023-03-23T02:04:20;5.82;;;4.82;;
495;SDS011;39559;48.630;9.162;2023-03-23T02:06:52;8.93;;;5.45;;
495;SDS011;39559;48.630;9.162;2023-03-23T02:09:21;6.10;;;5.25;;
495;SDS011;39559;48.630;9.162;2023-03-23T02:11:47;7.85;;;4.72;;
495;SDS011;39559;48.630;9.162;2023-03-23T02:14:15;5.75;;;5.15;;
495;SDS011;39559;48.630;9.162;2023-03-23T02:18:23;7.43;;;4.93;;
495;SDS011;39559;48.630;9.162;2023-03-23T02:26:53;4.97;;;4.07;;
495;SDS011;39559;48.630;9.162;2023-03-23T02:29:27;5.88;;;5.20;;
495;SDS011;39559;48.630;9.162;2023-03-23T02:37:27;5.50;;;4.10;;
495;SDS011;39559;48.630;9.162;2023-03-23T02:42:19;4.97;;;4.47;;
495;SDS011;39559;48.630;9.162;2023-03-23T02:44:48;5.63;;;4.65;;
495;SDS011;39559;48.630;9.162;2023-03-23T02:47:19;4.43;;;4.03;;
495;SDS011;39559;48.630;9.162;2023-03-23T02:49:49;5.72;;;4.30;;
495;SDS011;39559;48.630;9.162;2023-03-23T02:52:22;5.13;;;4.15;;
495;SDS011;39559;48.630;9.162;2023-03-23T02:54:51;5.85;;;4.95;;
495;SDS011;39559;48.630;9.162;2023-03-23T02:57:18;3.05;;;2.75;;
495;SDS011;39559;48.630;9.162;2023-03-23T02:59:46;3.33;;;3.03;;
495;SDS011;39559;48.630;9.162;2023-03-23T03:02:45;4.67;;;2.87;;
495;SDS011;39559;48.630;9.162;2023-03-23T03:09:38;3.63;;;3.33;;
495;SDS011;39559;48.630;9.162;2023-03-23T03:17:42;3.50;;;3.20;;
495;SDS011;39559;48.630;9.162;2023-03-23T03:20:13;4.22;;;3.83;;
495;SDS011;39559;48.630;9.162;2023-03-23T03:22:40;3.83;;;3.53;;
495;SDS011;39559;48.630;9.162;2023-03-23T03:25:08;3.58;;;3.30;;
495;SDS011;39559;48.630;9.162;2023-03-23T03:30:12;3.90;;;3.60;;
495;SDS011;39559;48.630;9.162;2023-03-23T03:32:43;3.88;;;3.50;;
495;SDS011;39559;48.630;9.162;2023-03-23T03:35:14;3.88;;;3.58;;
495;SDS011;39559;48.630;9.162;2023-03-23T03:37:41;3.17;;;2.90;;
495;SDS011;39559;48.630;9.162;2023-03-23T03:40:08;3.75;;;3.40;;
495;SDS011;39559;48.630;9.162;2023-03-23T03:42:40;3.50;;;3.20;;
495;SDS011;39559;48.630;9.162;2023-03-23T03:45:08;3.78;;;3.47;;
495;SDS011;39559;48.630;9.162;2023-03-23T03:47:35;3.60;;;3.30;;
495;SDS011;39559;48.630;9.162;2023-03-23T03:50:01;3.80;;;3.50;;
495;SDS011;39559;48.630;9.162;2023-03-23T03:54:12;3.45;;;3.15;;
495;SDS011;39559;48.630;9.162;2023-03-23T03:56:37;3.43;;;3.23;;
495;SDS011;39559;48.630;9.162;2023-03-23T03:59:06;4.38;;;3.40;;
495;SDS011;39559;48.630;9.162;2023-03-23T04:01:36;3.40;;;3.10;;
495;SDS011;39559;48.630;9.162;2023-03-23T04:04:03;3.85;;;2.90;;
495;SDS011;39559;48.630;9.162;2023-03-23T04:06:31;3.25;;;3.05;;
495;SDS011;39559;48.630;9.162;2023-03-23T04:08:57;3.75;;;3.45;;
495;SDS011;39559;48.630;9.162;2023-03-23T04:11:26;3.97;;;3.60;;
495;SDS011;39559;48.630;9.162;2023-03-23T04:13:52;4.27;;;3.67;;
495;SDS011;39559;48.630;9.162;2023-03-23T04:18:10;3.53;;;3.22;;
495;SDS011;39559;48.630;9.162;2023-03-23T04:20:37;3.58;;;3.28;;
495;SDS011;39559;48.630;9.162;2023-03-23T04:23:02;3.78;;;3.40;;
495;SDS011;39559;48.630;9.162;2023-03-23T04:25:28;3.70;;;3.20;;
495;SDS011;39559;48.630;9.162;2023-03-23T04:27:57;3.75;;;3.25;;
495;SDS011;39559;48.630;9.162;2023-03-23T04:30:26;4.18;;;3.50;;
495;SDS011;39559;48.630;9.162;2023-03-23T04:32:54;3.65;;;3.35;;
495;SDS011;39559;48.630;9.162;2023-03-23T04:35:21;4.10;;;3.72;;
495;SDS011;39559;48.630;9.162;2023-03-23T04:37:51;4.28;;;3.88;;
495;SDS011;39559;48.630;9.162;2023-03-23T04:42:08;3.78;;;3.47;;
495;SDS011;39559;48.630;9.162;2023-03-23T04:44:34;4.33;;;3.93;;
495;SDS011;39559;48.630;9.162;2023-03-23T04:47:00;4.40;;;4.00;;
495;SDS011;39559;48.630;9.162;2023-03-23T04:49:27;5.40;;;4.00;;
495;SDS011;39559;48.630;9.162;2023-03-23T04:51:55;4.25;;;3.80;;
495;SDS011;39559;48.630;9.162;2023-03-23T04:54:21;4.22;;;3.88;;
495;SDS011;39559;48.630;9.162;2023-03-23T04:56:47;4.30;;;3.55;;
495;SDS011;39559;48.630;9.162;2023-03-23T04:59:13;4.83;;;4.33;;
495;SDS011;39559;48.630;9.162;2023-03-23T05:01:40;4.40;;;4.00;;
495;SDS011;39559;48.630;9.162;2023-03-23T05:06:17;4.93;;;4.53;;
495;SDS011;39559;48.630;9.162;2023-03-23T05:08:43;5.50;;;4.97;;
495;SDS011;39559;48.630;9.162;2023-03-23T05:11:09;6.70;;;5.80;;
495;SDS011;39559;48.630;9.162;2023-03-23T05:13:34;6.53;;;5.93;;
495;SDS011;39559;48.630;9.162;2023-03-23T05:16:03;8.33;;;5.73;;
495;SDS011;39559;48.630;9.162;2023-03-23T05:18:29;5.80;;;5.30;;
495;SDS011;39559;48.630;9.162;2023-03-23T05:21:06;5.80;;;5.30;;
495;SDS011;39559;48.630;9.162;2023-03-23T05:23:32;7.00;;;5.20;;
495;SDS011;39559;48.630;9.162;2023-03-23T05:25:58;5.97;;;5.18;;
495;SDS011;39559;48.630;9.162;2023-03-23T05:30:03;6.10;;;3.93;;
495;SDS011;39559;48.630;9.162;2023-03-23T05:32:30;5.32;;;4.60;;
495;SDS011;39559;48.630;9.162;2023-03-23T05:34:59;5.22;;;4.72;;
495;SDS011;39559;48.630;9.162;2023-03-23T05:37:26;5.72;;;4.93;;
495;SDS011;39559;48.630;9.162;2023-03-23T05:39:59;6.55;;;5.10;;
495;SDS011;39559;48.630;9.162;2023-03-23T05:42:32;5.47;;;4.97;;
495;SDS011;39559;48.630;9.162;2023-03-23T05:45:00;4.50;;;4.10;;
495;SDS011;39559;48.630;9.162;2023-03-23T05:47:27;5.93;;;5.43;;
495;SDS011;39559;48.630;9.162;2023-03-23T05:49:54;4.90;;;4.50;;
495;SDS011;39559;48.630;9.162;2023-03-23T05:54:02;5.60;;;5.10;;
495;SDS011;39559;48.630;9.162;2023-03-23T05:56:42;5.60;;;5.10;;
495;SDS011;39559;48.630;9.162;2023-03-23T05:59:11;5.40;;;4.90;;
495;SDS011;39559;48.630;9.162;2023-03-23T06:01:38;5.70;;;5.20;;
495;SDS011;39559;48.630;9.162;2023-03-23T06:04:04;5.77;;;5.27;;
495;SDS011;39559;48.630;9.162;2023-03-23T06:06:31;5.45;;;4.95;;
495;SDS011;39559;48.630;9.162;2023-03-23T06:08:57;5.30;;;4.40;;
495;SDS011;39559;48.630;9.162;2023-03-23T06:11:30;5.25;;;4.75;;
495;SDS011;39559;48.630;9.162;2023-03-23T06:13:58;5.95;;;5.43;;
495;SDS011;39559;48.630;9.162;2023-03-23T06:18:02;8.75;;;7.85;;
495;SDS011;39559;48.630;9.162;2023-03-23T06:20:30;7.40;;;6.57;;
495;SDS011;39559;48.630;9.162;2023-03-23T06:22:57;12.77;;;10.50;;
495;SDS011;39559;48.630;9.162;2023-03-23T06:25:24;4.43;;;3.95;;
495;SDS011;39559;48.630;9.162;2023-03-23T06:27:49;4.60;;;4.20;;
495;SDS011;39559;48.630;9.162;2023-03-23T06:30:17;5.00;;;4.60;;
495;SDS011;39559;48.630;9.162;2023-03-23T06:32:43;5.75;;;5.00;;
495;SDS011;39559;48.630;9.162;2023-03-23T06:35:12;4.40;;;4.00;;
495;SDS011;39559;48.630;9.162;2023-03-23T06:37:39;4.25;;;3.85;;
495;SDS011;39559;48.630;9.162;2023-03-23T06:41:59;4.03;;;3.72;;
495;SDS011;39559;48.630;9.162;2023-03-23T06:44:25;5.03;;;3.80;;
495;SDS011;39559;48.630;9.162;2023-03-23T06:46:51;4.60;;;3.90;;
495;SDS011;39559;48.630;9.162;2023-03-23T06:49:17;3.87;;;3.57;;
495;SDS011;39559;48.630;9.162;2023-03-23T06:51:42;3.37;;;3.07;;
495;SDS011;39559;48.630;9.162;2023-03-23T06:54:08;5.03;;;3.50;;
495;SDS011;39559;48.630;9.162;2023-03-23T06:56:33;4.13;;;3.60;;
495;SDS011;39559;48.630;9.162;2023-03-23T06:58:59;4.80;;;3.63;;
495;SDS011;39559;48.630;9.162;2023-03-23T07:01:25;3.60;;;3.30;;
495;SDS011;39559;48.630;9.162;2023-03-23T07:05:57;3.85;;;3.55;;
495;SDS011;39559;48.630;9.162;2023-03-23T07:08:24;3.53;;;3.22;;
495;SDS011;39559;48.630;9.162;2023-03-23T07:10:51;3.97;;;3.67;;
495;SDS011;39559;48.630;9.162;2023-03-23T07:13:19;3.83;;;3.53;;
495;SDS011;39559;48.630;9.162;2023-03-23T07:15:45;3.80;;;3.50;;
495;SDS011;39559;48.630;9.162;2023-03-23T07:18:11;3.85;;;3.45;;
495;SDS011;39559;48.630;9.162;2023-03-23T07:20:37;3.73;;;3.37;;
495;SDS011;39559;48.630;9.162;2023-03-23T07:23:03;3.63;;;3.33;;
495;SDS011;39559;48.630;9.162;2023-03-23T07:25:31;4.63;;;3.78;;
495;SDS011;39559;48.630;9.162;2023-03-23T07:29:55;3.70;;;3.40;;
495;SDS011;39559;48.630;9.162;2023-03-23T07:32:22;3.80;;;3.50;;
495;SDS011;39559;48.630;9.162;2023-03-23T07:34:49;3.70;;;3.40;;
495;SDS011;39559;48.630;9.162;2023-03-23T07:37:14;3.83;;;3.30;;
495;SDS011;39559;48.630;9.162;2023-03-23T07:39:41;4.00;;;3.58;;
495;SDS011;39559;48.630;9.162;2023-03-23T07:42:07;3.80;;;3.50;;
495;SDS011;39559;48.630;9.162;2023-03-23T07:44:33;3.45;;;3.15;;
495;SDS011;39559;48.630;9.162;2023-03-23T07:46:59;3.90;;;3.60;;
495;SDS011;39559;48.630;9.162;2023-03-23T07:49:25;3.90;;;3.50;;
495;SDS011;39559;48.630;9.162;2023-03-23T07:53:53;4.65;;;3.45;;
495;SDS011;39559;48.630;9.162;2023-03-23T07:56:19;3.90;;;3.60;;
495;SDS011;39559;48.630;9.162;2023-03-23T07:58:46;4.73;;;4.27;;
495;SDS011;39559;48.630;9.162;2023-03-23T08:01:12;3.60;;;3.30;;
495;SDS011;39559;48.630;9.162;2023-03-23T08:03:39;4.00;;;3.65;;
495;SDS011;39559;48.630;9.162;2023-03-23T08:06:07;4.53;;;4.13;;
495;SDS011;39559;48.630;9.162;2023-03-23T08:08:35;5.35;;;4.00;;
495;SDS011;39559;48.630;9.162;2023-03-23T08:11:01;4.15;;;3.75;;
495;SDS011;39559;48.630;9.162;2023-03-23T08:13:26;4.30;;;4.00;;
495;SDS011;39559;48.630;9.162;2023-03-23T08:17:51;3.70;;;3.40;;
495;SDS011;39559;48.630;9.162;2023-03-23T08:20:18;4.38;;;3.97;;
495;SDS011;39559;48.630;9.162;2023-03-23T08:22:53;4.97;;;3.60;;
495;SDS011;39559;48.630;9.162;2023-03-23T08:25:21;7.78;;;4.25;;
495;SDS011;39559;48.630;9.162;2023-03-23T08:27:49;4.13;;;3.75;;
495;SDS011;39559;48.630;9.162;2023-03-23T08:30:17;4.45;;;4.05;;
495;SDS011;39559;48.630;9.162;2023-03-23T08:32:51;4.38;;;3.65;;
495;SDS011;39559;48.630;9.162;2023-03-23T08:35:18;4.25;;;3.85;;
495;SDS011;39559;48.630;9.162;2023-03-23T08:37:44;4.65;;;3.90;;
495;SDS011;39559;48.630;9.162;2023-03-23T08:41:52;4.15;;;3.85;;
495;SDS011;39559;48.630;9.162;2023-03-23T08:44:18;4.22;;;3.88;;
495;SDS011;39559;48.630;9.162;2023-03-23T08:46:44;4.10;;;3.70;;
495;SDS011;39559;48.630;9.162;2023-03-23T08:49:09;4.47;;;4.03;;
495;SDS011;39559;48.630;9.162;2023-03-23T08:51:35;4.70;;;4.30;;
495;SDS011;39559;48.630;9.162;2023-03-23T08:54:01;4.20;;;3.80;;
495;SDS011;39559;48.630;9.162;2023-03-23T08:56:26;5.23;;;4.10;;
495;SDS011;39559;48.630;9.162;2023-03-23T08:58:52;4.03;;;3.73;;
495;SDS011;39559;48.630;9.162;2023-03-23T09:01:18;4.47;;;4.07;;
495;SDS011;39559;48.630;9.162;2023-03-23T09:05:47;3.78;;;3.45;;
495;SDS011;39559;48.630;9.162;2023-03-23T09:08:13;4.28;;;3.90;;
495;SDS011;39559;48.630;9.162;2023-03-23T09:10:39;3.80;;;3.40;;
495;SDS011;39559;48.630;9.162;2023-03-23T09:13:05;4.37;;;4.00;;
495;SDS011;39559;48.630;9.162;2023-03-23T09:15:31;4.13;;;3.72;;
495;SDS011;39559;48.630;9.162;2023-03-23T09:17:57;4.25;;;3.85;;
495;SDS011;39559;48.630;9.162;2023-03-23T09:20:25;4.85;;;3.90;;
495;SDS011;39559;48.630;9.162;2023-03-23T09:22:53;3.85;;;3.55;;
495;SDS011;39559;48.630;9.162;2023-03-23T09:25:21;4.38;;;3.90;;
495;SDS011;39559;48.630;9.162;2023-03-23T09:29:42;5.27;;;3.90;;
495;SDS011;39559;48.630;9.162;2023-03-23T09:32:09;3.83;;;3.53;;
495;SDS011;39559;48.630;9.162;2023-03-23T09:34:35;4.30;;;3.90;;
495;SDS011;39559;48.630;9.162;2023-03-23T09:37:03;3.85;;;3.45;;
495;SDS011;39559;48.630;9.162;2023-03-23T09:39:29;3.38;;;3.03;;
495;SDS011;39559;48.630;9.162;2023-03-23T09:42:05;4.82;;;3.85;;
495;SDS011;39559;48.630;9.162;2023-03-23T09:44:53;3.80;;;3.47;;
495;SDS011;39559;48.630;9.162;2023-03-23T09:48:07;3.50;;;3.20;;
495;SDS011;39559;48.630;9.162;2023-03-23T09:50:37;3.67;;;3.38;;
495;SDS011;39559;48.630;9.162;2023-03-23T09:53:44;3.85;;;3.30;;
495;SDS011;39559;48.630;9.162;2023-03-23T09:56:15;3.88;;;3.15;;
495;SDS011;39559;48.630;9.162;2023-03-23T10:01:24;3.70;;;3.30;;
495;SDS011;39559;48.630;9.162;2023-03-23T10:03:59;4.10;;;3.70;;
495;SDS011;39559;48.630;9.162;2023-03-23T10:06:48;3.88;;;3.58;;
495;SDS011;39559;48.630;9.162;2023-03-23T10:09:16;3.83;;;3.53;;
495;SDS011;39559;48.630;9.162;2023-03-23T10:11:52;3.70;;;3.40;;
495;SDS011;39559;48.630;9.162;2023-03-23T10:17:50;3.45;;;3.15;;
495;SDS011;39559;48.630;9.162;2023-03-23T10:20:39;4.03;;;3.40;;
495;SDS011;39559;48.630;9.162;2023-03-23T10:23:31;3.97;;;3.58;;
495;SDS011;39559;48.630;9.162;2023-03-23T10:26:16;3.30;;;3.00;;
495;SDS011;39559;48.630;9.162;2023-03-23T10:32:00;3.00;;;2.70;;
495;SDS011;39559;48.630;9.162;2023-03-23T10:34:41;3.05;;;2.67;;
495;SDS011;39559;48.630;9.162;2023-03-23T10:37:21;8.32;;;4.53;;
495;SDS011;39559;48.630;9.162;2023-03-23T10:41:36;3.00;;;2.80;;
495;SDS011;39559;48.630;9.162;2023-03-23T10:44:19;2.90;;;2.70;;
495;SDS011;39559;48.630;9.162;2023-03-23T10:49:34;3.30;;;3.00;;
495;SDS011;39559;48.630;9.162;2023-03-23T10:55:03;2.92;;;2.72;;
495;SDS011;39559;48.630;9.162;2023-03-23T10:57:33;3.00;;;2.70;;
495;SDS011;39559;48.630;9.162;2023-03-23T11:00:05;3.00;;;2.67;;
495;SDS011;39559;48.630;9.162;2023-03-23T11:05:44;6.10;;;3.08;;
495;SDS011;39559;48.630;9.162;2023-03-23T11:11:20;2.88;;;2.60;;
495;SDS011;39559;48.630;9.162;2023-03-23T11:13:56;3.30;;;3.00;;
495;SDS011;39559;48.630;9.162;2023-03-23T11:18:54;3.08;;;2.78;;
495;SDS011;39559;48.630;9.162;2023-03-23T11:21:21;3.95;;;3.20;;
495;SDS011;39559;48.630;9.162;2023-03-23T11:23:49;3.45;;;3.15;;
495;SDS011;39559;48.630;9.162;2023-03-23T11:29:34;3.70;;;3.22;;
495;SDS011;39559;48.630;9.162;2023-03-23T11:37:14;3.40;;;3.10;;
495;SDS011;39559;48.630;9.162;2023-03-23T11:39:46;2.80;;;2.60;;
495;SDS011;39559;48.630;9.162;2023-03-23T11:42:18;4.15;;;3.13;;
495;SDS011;39559;48.630;9.162;2023-03-23T11:44:46;3.97;;;3.60;;
495;SDS011;39559;48.630;9.162;2023-03-23T11:47:18;3.00;;;2.80;;
495;SDS011;39559;48.630;9.162;2023-03-23T11:56:28;3.20;;;2.90;;
495;SDS011;39559;48.630;9.162;2023-03-23T11:58:58;3.42;;;3.13;;
495;SDS011;39559;48.630;9.162;2023-03-23T12:01:31;3.30;;;3.00;;
495;SDS011;39559;48.630;9.162;2023-03-23T12:06:58;3.30;;;3.00;;
495;SDS011;39559;48.630;9.162;2023-03-23T12:09:55;2.60;;;2.40;;
495;SDS011;39559;48.630;9.162;2023-03-23T12:12:40;2.90;;;2.70;;
495;SDS011;39559;48.630;9.162;2023-03-23T12:17:43;3.00;;;2.80;;
495;SDS011;39559;48.630;9.162;2023-03-23T12:20:31;2.90;;;2.70;;
495;SDS011;39559;48.630;9.162;2023-03-23T12:23:24;3.45;;;3.15;;
495;SDS011;39559;48.630;9.162;2023-03-23T12:26:06;2.80;;;2.60;;
495;SDS011;39559;48.630;9.162;2023-03-23T12:32:50;2.75;;;2.55;;
495;SDS011;39559;48.630;9.162;2023-03-23T12:37:34;3.03;;;2.80;;
495;SDS011;39559;48.630;9.162;2023-03-23T12:43:59;2.88;;;2.60;;
495;SDS011;39559;48.630;9.162;2023-03-23T12:54:51;3.60;;;2.95;;
495;SDS011;39559;48.630;9.162;2023-03-23T13:05:27;4.60;;;4.13;;
495;SDS011;39559;48.630;9.162;2023-03-23T13:08:11;4.78;;;3.40;;
495;SDS011;39559;48.630;9.162;2023-03-23T13:10:49;3.95;;;3.55;;
495;SDS011;39559;48.630;9.162;2023-03-23T13:13:18;3.75;;;2.80;;
495;SDS011;39559;48.630;9.162;2023-03-23T13:18:34;3.20;;;2.90;;
495;SDS011;39559;48.630;9.162;2023-03-23T13:21:18;4.13;;;3.72;;
495;SDS011;39559;48.630;9.162;2023-03-23T13:24:09;3.97;;;3.67;;
495;SDS011;39559;48.630;9.162;2023-03-23T13:29:13;4.90;;;4.50;;
495;SDS011;39559;48.630;9.162;2023-03-23T13:31:44;4.05;;;3.72;;
495;SDS011;39559;48.630;9.162;2023-03-23T13:36:57;3.55;;;3.30;;
495;SDS011;39559;48.630;9.162;2023-03-23T13:40:13;4.00;;;3.70;;
495;SDS011;39559;48.630;9.162;2023-03-23T13:42:18;4.35;;;4.05;;
495;SDS011;39559;48.630;9.162;2023-03-23T13:45:04;3.78;;;3.47;;
495;SDS011;39559;48.630;9.162;2023-03-23T13:47:40;4.32;;;3.50;;
495;SDS011;39559;48.630;9.162;2023-03-23T13:53:14;4.18;;;3.88;;
495;SDS011;39559;48.630;9.162;2023-03-23T13:56:02;4.07;;;3.78;;
495;SDS011;39559;48.630;9.162;2023-03-23T13:58:31;3.95;;;3.65;;
495;SDS011;39559;48.630;9.162;2023-03-23T14:03:41;4.30;;;3.85;;
495;SDS011;39559;48.630;9.162;2023-03-23T14:06:15;7.05;;;4.00;;
495;SDS011;39559;48.630;9.162;2023-03-23T14:08:48;4.05;;;3.75;;
495;SDS011;39559;48.630;9.162;2023-03-23T14:11:24;4.50;;;4.15;;
495;SDS011;39559;48.630;9.162;2023-03-23T14:17:11;4.43;;;4.03;;
495;SDS011;39559;48.630;9.162;2023-03-23T14:19:40;5.70;;;4.05;;
495;SDS011;39559;48.630;9.162;2023-03-23T14:22:22;4.18;;;3.88;;
495;SDS011;39559;48.630;9.162;2023-03-23T14:24:49;6.10;;;3.90;;
495;SDS011;39559;48.630;9.162;2023-03-23T14:27:16;4.40;;;4.00;;
495;SDS011;39559;48.630;9.162;2023-03-23T14:29:45;4.25;;;3.85;;
495;SDS011;39559;48.630;9.162;2023-03-23T14:32:19;4.63;;;4.22;;
495;SDS011;39559;48.630;9.162;2023-03-23T14:34:51;5.35;;;4.00;;
495;SDS011;39559;48.630;9.162;2023-03-23T14:37:18;4.40;;;4.00;;
495;SDS011;39559;48.630;9.162;2023-03-23T14:41:03;4.22;;;3.83;;
495;SDS011;39559;48.630;9.162;2023-03-23T14:43:30;4.30;;;3.90;;
495;SDS011;39559;48.630;9.162;2023-03-23T14:46:00;3.92;;;3.63;;
495;SDS011;39559;48.630;9.162;2023-03-23T14:48:27;4.18;;;3.88;;
495;SDS011;39559;48.630;9.162;2023-03-23T14:50:57;4.43;;;4.03;;
495;SDS011;39559;48.630;9.162;2023-03-23T14:53:37;5.10;;;4.70;;
495;SDS011;39559;48.630;9.162;2023-03-23T14:56:18;4.25;;;3.95;;
495;SDS011;39559;48.630;9.162;2023-03-23T14:58:47;5.05;;;4.65;;
495;SDS011;39559;48.630;9.162;2023-03-23T15:05:22;5.18;;;4.68;;
495;SDS011;39559;48.630;9.162;2023-03-23T15:07:59;4.53;;;4.15;;
495;SDS011;39559;48.630;9.162;2023-03-23T15:10:28;4.50;;;4.10;;
495;SDS011;39559;48.630;9.162;2023-03-23T15:12:54;4.45;;;4.05;;
495;SDS011;39559;48.630;9.162;2023-03-23T15:17:56;4.60;;;4.20;;
495;SDS011;39559;48.630;9.162;2023-03-23T15:20:24;4.65;;;3.80;;
495;SDS011;39559;48.630;9.162;2023-03-23T15:22:51;4.65;;;4.25;;
495;SDS011;39559;48.630;9.162;2023-03-23T15:25:19;4.25;;;3.85;;
495;SDS011;39559;48.630;9.162;2023-03-23T15:29:10;4.70;;;4.30;;
495;SDS011;39559;48.630;9.162;2023-03-23T15:31:40;5.95;;;5.35;;
495;SDS011;39559;48.630;9.162;2023-03-23T15:34:10;5.07;;;3.97;;
495;SDS011;39559;48.630;9.162;2023-03-23T15:36:40;4.28;;;3.97;;
495;SDS011;39559;48.630;9.162;2023-03-23T15:39:08;4.40;;;4.00;;
495;SDS011;39559;48.630;9.162;2023-03-23T15:41:44;4.82;;;4.30;;
495;SDS011;39559;48.630;9.162;2023-03-23T15:44:22;4.45;;;4.10;;
495;SDS011;39559;48.630;9.162;2023-03-23T15:46:49;4.65;;;4.20;;
495;SDS011;39559;48.630;9.162;2023-03-23T15:49:16;4.05;;;3.75;;
495;SDS011;39559;48.630;9.162;2023-03-23T15:52:52;4.70;;;4.20;;
495;SDS011;39559;48.630;9.162;2023-03-23T15:55:22;4.93;;;4.27;;
495;SDS011;39559;48.630;9.162;2023-03-23T15:57:49;4.57;;;4.15;;
495;SDS011;39559;48.630;9.162;2023-03-23T16:00:17;4.35;;;3.95;;
495;SDS011;39559;48.630;9.162;2023-03-23T16:02:48;5.63;;;4.30;;
495;SDS011;39559;48.630;9.162;2023-03-23T16:05:18;4.30;;;3.90;;
495;SDS011;39559;48.630;9.162;2023-03-23T16:07:43;3.93;;;3.63;;
495;SDS011;39559;48.630;9.162;2023-03-23T16:10:19;4.30;;;3.90;;
495;SDS011;39559;48.630;9.162;2023-03-23T16:12:47;4.22;;;3.83;;
495;SDS011;39559;48.630;9.162;2023-03-23T16:16:48;3.97;;;3.67;;
495;SDS011;39559;48.630;9.162;2023-03-23T16:19:17;5.03;;;4.53;;
495;SDS011;39559;48.630;9.162;2023-03-23T16:21:44;4.47;;;4.07;;
495;SDS011;39559;48.630;9.162;2023-03-23T16:24:10;4.40;;;4.00;;
495;SDS011;39559;48.630;9.162;2023-03-23T16:26:36;4.20;;;3.80;;
495;SDS011;39559;48.630;9.162;2023-03-23T16:29:11;4.30;;;3.90;;
495;SDS011;39559;48.630;9.162;2023-03-23T16:31:37;4.40;;;4.00;;
495;SDS011;39559;48.630;9.162;2023-03-23T16:34:03;4.10;;;3.70;;
495;SDS011;39559;48.630;9.162;2023-03-23T16:36:29;4.23;;;3.83;;
495;SDS011;39559;48.630;9.162;2023-03-23T16:40:45;4.55;;;4.00;;
495;SDS011;39559;48.630;9.162;2023-03-23T16:43:11;6.00;;;5.00;;
495;SDS011;39559;48.630;9.162;2023-03-23T16:45:38;4.30;;;3.90;;
495;SDS011;39559;48.630;9.162;2023-03-23T16:48:05;4.53;;;4.10;;
495;SDS011;39559;48.630;9.162;2023-03-23T16:50:32;4.75;;;4.35;;
495;SDS011;39559;48.630;9.162;2023-03-23T16:52:58;4.70;;;4.30;;
495;SDS011;39559;48.630;9.162;2023-03-23T16:55:24;4.50;;;4.10;;
495;SDS011;39559;48.630;9.162;2023-03-23T16:57:51;4.60;;;4.10;;
495;SDS011;39559;48.630;9.162;2023-03-23T17:00:18;4.05;;;3.75;;
495;SDS011;39559;48.630;9.162;2023-03-23T17:04:44;5.38;;;4.47;;
495;SDS011;39559;48.630;9.162;2023-03-23T17:07:10;4.88;;;4.47;;
495;SDS011;39559;48.630;9.162;2023-03-23T17:09:37;4.70;;;4.30;;
495;SDS011;39559;48.630;9.162;2023-03-23T17:12:03;4.90;;;4.50;;
495;SDS011;39559;48.630;9.162;2023-03-23T17:14:29;4.65;;;4.15;;
495;SDS011;39559;48.630;9.162;2023-03-23T17:16:55;4.47;;;4.00;;
495;SDS011;39559;48.630;9.162;2023-03-23T17:19:21;4.80;;;4.30;;
495;SDS011;39559;48.630;9.162;2023-03-23T17:21:47;5.60;;;4.67;;
495;SDS011;39559;48.630;9.162;2023-03-23T17:24:12;4.87;;;4.37;;
495;SDS011;39559;48.630;9.162;2023-03-23T17:28:34;4.00;;;3.70;;
495;SDS011;39559;48.630;9.162;2023-03-23T17:31:00;4.63;;;4.23;;
495;SDS011;39559;48.630;9.162;2023-03-23T17:33:25;4.43;;;4.00;;
495;SDS011;39559;48.630;9.162;2023-03-23T17:35:51;4.20;;;3.83;;
495;SDS011;39559;48.630;9.162;2023-03-23T17:38:18;4.32;;;4.03;;
495;SDS011;39559;48.630;9.162;2023-03-23T17:40:43;3.90;;;3.60;;
495;SDS011;39559;48.630;9.162;2023-03-23T17:43:09;4.20;;;3.80;;
495;SDS011;39559;48.630;9.162;2023-03-23T17:45:35;4.30;;;3.90;;
495;SDS011;39559;48.630;9.162;2023-03-23T17:48:01;4.53;;;4.03;;
495;SDS011;39559;48.630;9.162;2023-03-23T17:52:33;4.07;;;3.78;;
495;SDS011;39559;48.630;9.162;2023-03-23T17:54:58;4.63;;;4.10;;
495;SDS011;39559;48.630;9.162;2023-03-23T17:57:24;5.13;;;4.23;;
495;SDS011;39559;48.630;9.162;2023-03-23T17:59:50;5.27;;;3.77;;
495;SDS011;39559;48.630;9.162;2023-03-23T18:02:16;3.70;;;3.00;;
495;SDS011;39559;48.630;9.162;2023-03-23T18:04:43;4.13;;;3.70;;
495;SDS011;39559;48.630;9.162;2023-03-23T18:07:10;3.80;;;3.40;;
495;SDS011;39559;48.630;9.162;2023-03-23T18:09:37;4.07;;;3.47;;
495;SDS011;39559;48.630;9.162;2023-03-23T18:12:02;4.83;;;4.17;;
495;SDS011;39559;48.630;9.162;2023-03-23T18:16:29;6.53;;;5.63;;
495;SDS011;39559;48.630;9.162;2023-03-23T18:18:55;4.00;;;3.30;;
495;SDS011;39559;48.630;9.162;2023-03-23T18:21:21;5.70;;;5.13;;
495;SDS011;39559;48.630;9.162;2023-03-23T18:23:47;6.05;;;5.20;;
495;SDS011;39559;48.630;9.162;2023-03-23T18:26:13;5.47;;;4.97;;
495;SDS011;39559;48.630;9.162;2023-03-23T18:28:40;4.97;;;4.07;;